createdAt,value
2018-08-24T00:00:51.993Z,250.40
2018-08-24T00:03:22.248Z,253.77
2018-08-24T00:05:52.644Z,264.05
2018-08-24T00:08:22.950Z,269.55
2018-08-24T00:10:53.469Z,274.32
2018-08-24T00:13:23.796Z,264.30
2018-08-24T00:15:54.721Z,262.35
2018-08-24T00:18:25.182Z,260.77
2018-08-24T00:20:57.315Z,269.02
2018-08-24T00:23:27.655Z,252.40
2018-08-24T00:25:57.936Z,271.32
2018-08-24T00:28:29.028Z,283.30
2018-08-24T00:31:00.633Z,275.10
2018-08-24T00:33:31.951Z,254.82
2018-08-24T00:36:02.656Z,260.98
2018-08-24T00:38:36.248Z,268.37
2018-08-24T00:41:07.083Z,268.88
2018-08-24T00:43:37.452Z,259.23
2018-08-24T00:46:07.950Z,266.45
2018-08-24T00:48:38.512Z,258.25
2018-08-24T00:51:10.631Z,278.75
2018-08-24T00:53:42.478Z,269.82
2018-08-24T00:56:13.442Z,261.75
2018-08-24T00:58:43.595Z,257.10
2018-08-24T01:01:14.221Z,266.30
2018-08-24T01:03:44.491Z,271.65
2018-08-24T01:06:15.383Z,275.85
2018-08-24T01:08:45.727Z,282.92
2018-08-24T01:11:16.251Z,292.62
2018-08-24T01:13:51.018Z,264.65
2018-08-24T01:16:26.531Z,263.68
2018-08-24T01:18:56.692Z,269.23
2018-08-24T01:21:27.127Z,271.13
2018-08-24T01:23:57.757Z,275.82
2018-08-24T01:26:27.942Z,252.72
2018-08-24T01:28:58.296Z,252.47
2018-08-24T01:31:28.859Z,273.60
2018-08-24T01:33:59.303Z,256.85
2018-08-24T01:36:29.604Z,248.10
2018-08-24T01:39:00.161Z,245.02
2018-08-24T01:41:30.784Z,254.63
2018-08-24T01:44:01.212Z,258.05
2018-08-24T01:46:31.488Z,258.55
2018-08-24T01:49:02.451Z,273.15
2018-08-24T01:51:32.902Z,258.90
2018-08-24T01:54:03.179Z,267.00
2018-08-24T01:56:33.589Z,249.22
2018-08-24T01:59:04.205Z,267.35
2018-08-24T02:01:34.791Z,261.50
2018-08-24T02:04:05.088Z,260.55
2018-08-24T02:06:35.397Z,251.98
2018-08-24T02:09:08.804Z,245.52
2018-08-24T02:11:39.091Z,247.73
2018-08-24T02:14:15.138Z,261.12
2018-08-24T02:16:46.466Z,252.20
2018-08-24T02:19:17.880Z,266.02
2018-08-24T02:21:53.187Z,253.32
2018-08-24T02:24:23.651Z,280.62
2018-08-24T02:26:54.355Z,278.15
2018-08-24T02:29:24.632Z,278.10
2018-08-24T02:31:59.547Z,285.73
2018-08-24T02:34:41.761Z,270.75
2018-08-24T02:37:11.903Z,268.42
2018-08-24T02:39:42.125Z,268.17
2018-08-24T02:42:12.238Z,261.50
2018-08-24T02:44:42.646Z,277.85
2018-08-24T02:47:15.471Z,270.50
2018-08-24T02:49:45.850Z,263.25
2018-08-24T02:52:16.147Z,255.87
2018-08-24T02:54:46.722Z,273.77
2018-08-24T02:57:16.965Z,267.48
2018-08-24T02:59:48.292Z,250.22
2018-08-24T03:02:18.452Z,246.60
2018-08-24T03:04:48.593Z,249.32
2018-08-24T03:07:19.019Z,265.80
2018-08-24T03:09:49.484Z,263.95
2018-08-24T03:12:19.675Z,252.13
2018-08-24T03:14:50.016Z,248.75
2018-08-24T03:17:25.805Z,258.10
2018-08-24T03:19:56.577Z,251.12
2018-08-24T03:22:26.995Z,241.00
2018-08-24T03:24:57.220Z,238.12
2018-08-24T03:27:27.623Z,245.73
2018-08-24T03:29:58.058Z,254.68
2018-08-24T03:32:28.396Z,259.75
2018-08-24T03:34:58.824Z,248.60
2018-08-24T03:37:28.971Z,239.05
2018-08-24T03:39:59.231Z,242.50
2018-08-24T03:42:29.513Z,254.72
2018-08-24T03:45:00.065Z,245.15
2018-08-24T03:47:30.724Z,242.77
2018-08-24T03:50:01.022Z,250.30
2018-08-24T03:52:33.414Z,261.12
2018-08-24T03:55:08.174Z,259.40
2018-08-24T03:57:39.357Z,255.60
2018-08-24T04:00:13.912Z,270.65
2018-08-24T04:02:45.517Z,252.60
2018-08-24T04:05:16.374Z,250.22
2018-08-24T04:07:51.306Z,253.25
2018-08-24T04:10:22.104Z,270.27
2018-08-24T04:12:52.326Z,270.27
2018-08-24T04:15:24.284Z,265.68
2018-08-24T04:17:55.515Z,255.10
2018-08-24T04:20:26.023Z,270.80
2018-08-24T04:22:56.540Z,250.43
2018-08-24T04:25:26.925Z,261.37
2018-08-24T04:27:58.024Z,254.35
2018-08-24T04:30:30.732Z,244.18
2018-08-24T04:33:01.810Z,244.93
2018-08-24T04:35:32.575Z,249.60
2018-08-24T04:38:05.731Z,253.62
2018-08-24T04:40:36.034Z,245.90
2018-08-24T04:43:07.597Z,242.47
2018-08-24T04:45:39.366Z,246.77
2018-08-24T04:48:13.044Z,255.90
2018-08-24T04:50:43.332Z,247.35
2018-08-24T04:53:13.675Z,246.10
2018-08-24T04:55:43.917Z,240.28
2018-08-24T04:58:14.467Z,244.50
2018-08-24T05:00:44.833Z,252.60
2018-08-24T05:03:15.111Z,240.95
2018-08-24T05:05:45.665Z,253.25
2018-08-24T05:08:15.907Z,251.35
2018-08-24T05:10:46.535Z,244.75
2018-08-24T05:13:16.740Z,250.80
2018-08-24T05:15:48.829Z,239.72
2018-08-24T05:18:19.185Z,236.45
2018-08-24T05:20:49.627Z,240.22
2018-08-24T05:23:19.892Z,243.35
2018-08-24T05:25:50.333Z,252.87
2018-08-24T05:28:21.179Z,251.25
2018-08-24T05:30:51.956Z,250.32
2018-08-24T05:33:22.267Z,268.90
2018-08-24T05:35:52.684Z,252.30
2018-08-24T05:38:23.254Z,243.80
2018-08-24T05:40:53.887Z,245.27
2018-08-24T05:43:24.927Z,245.07
2018-08-24T05:45:58.363Z,250.60
2018-08-24T05:48:32.620Z,251.25
2018-08-24T05:51:05.847Z,250.28
2018-08-24T05:53:41.948Z,243.17
2018-08-24T05:56:18.237Z,240.57
2018-08-24T05:58:50.090Z,238.45
2018-08-24T06:01:21.041Z,242.77
2018-08-24T06:03:51.308Z,229.15
2018-08-24T06:06:23.573Z,234.90
2018-08-24T06:08:59.111Z,229.93
2018-08-24T06:11:29.539Z,236.30
2018-08-24T06:13:59.925Z,232.37
2018-08-24T06:16:30.316Z,236.52
2018-08-24T06:19:00.561Z,242.85
2018-08-24T06:21:31.115Z,245.07
2018-08-24T06:24:01.561Z,233.00
2018-08-24T06:26:31.956Z,230.98
2018-08-24T06:29:02.216Z,235.63
2018-08-24T06:31:32.872Z,230.03
2018-08-24T06:34:03.492Z,227.55
2018-08-24T06:36:34.143Z,231.32
2018-08-24T06:39:07.079Z,243.12
2018-08-24T06:41:37.574Z,246.07
2018-08-24T06:44:07.947Z,241.42
2018-08-24T06:46:38.247Z,239.32
2018-08-24T06:49:08.619Z,229.53
2018-08-24T06:51:38.924Z,246.45
2018-08-24T06:54:09.219Z,248.15
2018-08-24T06:56:39.575Z,232.65
2018-08-24T06:59:10.002Z,234.80
2018-08-24T07:01:40.361Z,237.27
2018-08-24T07:04:10.591Z,237.42
2018-08-24T07:06:40.842Z,241.68
2018-08-24T07:09:11.191Z,242.70
2018-08-24T07:11:41.799Z,251.65
2018-08-24T07:14:11.976Z,245.42
2018-08-24T07:16:42.360Z,249.95
2018-08-24T07:19:13.083Z,239.90
2018-08-24T07:21:47.508Z,243.75
2018-08-24T07:27:14.834Z,234.90
2018-08-24T07:29:52.123Z,262.42
2018-08-24T07:32:27.124Z,238.30
2018-08-24T07:34:57.349Z,255.47
2018-08-24T07:37:27.711Z,271.40
2018-08-24T07:39:58.019Z,255.98
2018-08-24T07:42:29.312Z,252.32
2018-08-24T07:44:59.467Z,254.43
2018-08-24T07:47:29.788Z,252.70
2018-08-24T07:50:00.215Z,273.60
2018-08-24T07:52:30.628Z,258.35
2018-08-24T07:55:01.200Z,258.23
2018-08-24T07:57:31.733Z,253.10
2018-08-24T08:00:02.023Z,237.72
2018-08-24T08:02:37.307Z,249.35
2018-08-24T08:05:07.727Z,255.15
2018-08-24T08:07:37.932Z,250.55
2018-08-24T08:10:09.221Z,245.45
2018-08-24T08:12:40.579Z,244.97
2018-08-24T08:15:11.638Z,240.68
2018-08-24T08:17:42.140Z,251.22
2018-08-24T08:20:15.339Z,256.23
2018-08-24T08:22:45.688Z,245.17
2018-08-24T08:25:16.131Z,258.45
2018-08-24T08:27:47.479Z,245.07
2018-08-24T08:30:17.702Z,262.45
2018-08-24T08:32:48.176Z,251.40
2018-08-24T08:35:22.632Z,254.63
2018-08-24T08:37:52.795Z,255.75
2018-08-24T08:40:23.250Z,247.25
2018-08-24T08:42:53.635Z,243.15
2018-08-24T08:45:23.958Z,250.45
2018-08-24T08:47:55.438Z,257.73
2018-08-24T08:50:28.656Z,254.55
2018-08-24T08:52:59.493Z,246.13
2018-08-24T08:55:31.719Z,251.50
2018-08-24T08:58:03.455Z,244.82
2018-08-24T09:00:33.903Z,246.18
2018-08-24T09:03:04.970Z,252.38
2018-08-24T09:05:35.389Z,260.02
2018-08-24T09:08:06.403Z,259.50
2018-08-24T09:10:36.711Z,269.80
2018-08-24T09:13:08.120Z,260.00
2018-08-24T09:15:39.076Z,256.45
2018-08-24T09:20:54.055Z,259.60
2018-08-24T09:23:31.448Z,262.82
2018-08-24T09:26:08.219Z,263.92
2018-08-24T09:28:40.263Z,275.05
2018-08-24T09:31:15.653Z,269.02
2018-08-24T09:33:46.229Z,263.75
2018-08-24T09:36:20.168Z,271.90
2018-08-24T09:38:51.752Z,271.10
2018-08-24T09:41:21.946Z,260.63
2018-08-24T09:43:58.853Z,254.15
2018-08-24T09:46:33.980Z,258.75
2018-08-24T09:49:09.491Z,248.25
2018-08-24T09:51:39.882Z,269.02
2018-08-24T09:54:10.748Z,275.95
2018-08-24T09:56:41.621Z,273.02
2018-08-24T09:59:12.530Z,276.50
2018-08-24T10:01:47.908Z,280.83
2018-08-24T10:04:23.302Z,271.77
2018-08-24T10:06:58.786Z,269.43
2018-08-24T10:09:29.632Z,252.70
2018-08-24T10:12:00.427Z,255.77
2018-08-24T10:14:32.479Z,259.70
2018-08-24T10:17:03.260Z,260.75
2018-08-24T10:19:34.687Z,268.42
2018-08-24T10:22:06.349Z,279.93
2018-08-24T10:24:36.692Z,267.07
2018-08-24T10:27:07.218Z,281.32
2018-08-24T10:29:38.173Z,277.73
2018-08-24T10:32:09.203Z,282.07
2018-08-24T10:34:40.048Z,290.85
2018-08-24T10:37:12.316Z,286.50
2018-08-24T10:39:42.871Z,269.70
2018-08-24T10:42:13.231Z,265.60
2018-08-24T10:44:43.690Z,286.55
2018-08-24T10:47:14.056Z,269.55
2018-08-24T10:49:44.794Z,265.25
2018-08-24T10:52:15.123Z,266.20
2018-08-24T10:54:46.026Z,265.15
2018-08-24T10:57:19.518Z,274.98
2018-08-24T10:59:50.207Z,269.85
2018-08-24T11:02:20.625Z,273.95
2018-08-24T11:04:51.627Z,263.23
2018-08-24T11:07:24.325Z,284.07
2018-08-24T11:09:55.224Z,300.70
2018-08-24T11:12:29.498Z,288.15
2018-08-24T11:15:01.293Z,275.18
2018-08-24T11:17:36.619Z,287.23
2018-08-24T11:20:07.605Z,278.10
2018-08-24T11:22:38.188Z,277.73
2018-08-24T11:25:08.755Z,277.18
2018-08-24T11:27:39.061Z,284.07
2018-08-24T11:30:14.323Z,263.82
2018-08-24T11:32:44.920Z,256.57
2018-08-24T11:35:15.631Z,259.07
2018-08-24T11:37:45.977Z,267.85
2018-08-24T11:40:18.245Z,274.12
2018-08-24T11:42:50.318Z,268.27
2018-08-24T11:45:21.572Z,266.55
2018-08-24T11:47:52.244Z,260.15
2018-08-24T11:50:22.789Z,259.23
2018-08-24T11:52:53.642Z,283.73
2018-08-24T11:55:25.726Z,259.30
2018-08-24T11:57:56.267Z,277.52
2018-08-24T12:00:33.349Z,272.75
2018-08-24T12:03:05.308Z,279.13
2018-08-24T12:05:35.724Z,260.13
2018-08-24T12:08:07.289Z,267.00
2018-08-24T12:10:39.173Z,270.65
2018-08-24T12:13:10.779Z,252.87
2018-08-24T12:15:41.177Z,271.52
2018-08-24T12:18:12.823Z,275.70
2018-08-24T12:20:43.331Z,271.25
2018-08-24T12:23:14.064Z,277.38
2018-08-24T12:25:44.876Z,275.43
2018-08-24T12:28:15.587Z,273.38
2018-08-24T12:30:46.337Z,274.27
2018-08-24T12:33:17.497Z,270.15
2018-08-24T12:35:48.151Z,263.40
2018-08-24T12:38:18.972Z,255.25
2018-08-24T12:40:49.869Z,269.98
2018-08-24T12:43:20.490Z,268.12
2018-08-24T12:45:51.393Z,287.70
2018-08-24T12:48:22.258Z,279.02
2018-08-24T12:50:54.592Z,275.35
2018-08-24T12:53:25.475Z,269.75
2018-08-24T12:55:56.364Z,267.52
2018-08-24T12:58:26.869Z,267.32
2018-08-24T13:01:01.786Z,269.57
2018-08-24T13:03:32.188Z,271.32
2018-08-24T13:06:02.712Z,263.37
2018-08-24T13:08:33.422Z,264.32
2018-08-24T13:11:04.575Z,244.40
2018-08-24T13:13:34.831Z,259.37
2018-08-24T13:16:05.279Z,266.95
2018-08-24T13:18:35.706Z,272.77
2018-08-24T13:21:06.997Z,264.60
2018-08-24T13:23:38.198Z,264.35
2018-08-24T13:26:09.643Z,263.25
2018-08-24T13:28:40.309Z,267.95
2018-08-24T13:31:11.659Z,252.93
2018-08-24T13:33:44.310Z,264.23
2018-08-24T13:36:15.229Z,243.67
2018-08-24T13:38:47.495Z,252.45
2018-08-24T13:41:18.291Z,262.75
2018-08-24T13:43:48.732Z,267.15
2018-08-24T13:46:21.397Z,268.37
2018-08-24T13:48:52.484Z,259.43
2018-08-24T13:51:23.608Z,248.90
2018-08-24T13:53:54.088Z,262.65
2018-08-24T13:56:24.500Z,265.70
2018-08-24T13:58:54.892Z,273.25
2018-08-24T14:01:25.520Z,255.77
2018-08-24T14:03:55.867Z,270.07
2018-08-24T14:06:26.224Z,278.15
2018-08-24T14:08:56.538Z,260.85
2018-08-24T14:11:27.012Z,268.00
2018-08-24T14:13:57.229Z,269.37
2018-08-24T14:16:27.864Z,260.90
2018-08-24T14:18:58.521Z,259.12
2018-08-24T14:21:29.920Z,249.70
2018-08-24T14:24:00.309Z,253.45
2018-08-24T14:26:31.417Z,250.87
2018-08-24T14:29:02.348Z,243.42
2018-08-24T14:31:33.046Z,246.03
2018-08-24T14:34:05.636Z,250.05
2018-08-24T14:36:40.999Z,242.75
2018-08-24T14:39:12.586Z,247.58
2018-08-24T14:41:43.142Z,261.05
2018-08-24T14:44:13.943Z,245.95
2018-08-24T14:46:44.556Z,251.60
2018-08-24T14:49:15.007Z,263.90
2018-08-24T14:51:45.884Z,243.80
2018-08-24T14:54:16.608Z,256.20
2018-08-24T14:56:47.227Z,248.85
2018-08-24T14:59:17.871Z,253.05
2018-08-24T15:01:48.410Z,248.47
2018-08-24T15:04:18.880Z,244.87
2018-08-24T15:06:50.299Z,248.97
2018-08-24T15:09:20.817Z,245.42
2018-08-24T15:11:51.414Z,249.65
2018-08-24T15:14:22.008Z,231.32
2018-08-24T15:16:52.545Z,237.15
2018-08-24T15:19:23.033Z,238.00
2018-08-24T15:21:53.792Z,250.32
2018-08-24T15:24:24.589Z,246.10
2018-08-24T15:26:55.057Z,246.32
2018-08-24T15:29:27.510Z,241.33
2018-08-24T15:31:58.080Z,233.40
2018-08-24T15:34:28.552Z,244.95
2018-08-24T15:36:59.269Z,243.60
2018-08-24T15:39:30.179Z,233.85
2018-08-24T15:42:01.208Z,230.98
2018-08-24T15:44:32.026Z,233.97
2018-08-24T15:47:02.709Z,222.22
2018-08-24T15:49:33.496Z,226.22
2018-08-24T15:52:04.948Z,229.13
2018-08-24T15:54:35.541Z,229.00
2018-08-24T15:57:05.876Z,230.45
2018-08-24T15:59:36.454Z,229.72
2018-08-24T16:02:07.043Z,230.70
2018-08-24T16:04:37.869Z,228.70
2018-08-24T16:07:08.267Z,225.18
2018-08-24T16:09:40.080Z,237.12
2018-08-24T16:12:11.848Z,240.80
2018-08-24T16:14:44.947Z,244.80
2018-08-24T16:17:15.640Z,250.65
2018-08-24T16:19:46.653Z,238.55
2018-08-24T16:22:18.228Z,241.38
2018-08-24T16:24:51.946Z,237.95
2018-08-24T16:27:25.466Z,230.45
2018-08-24T16:29:58.421Z,230.77
2018-08-24T16:32:31.375Z,233.55
2018-08-24T16:35:04.468Z,249.42
2018-08-24T16:37:38.090Z,241.45
2018-08-24T16:40:10.697Z,245.67
2018-08-24T16:42:41.953Z,242.55
2018-08-24T16:45:13.010Z,244.47
2018-08-24T16:47:45.020Z,237.08
2018-08-24T16:50:16.729Z,235.88
2018-08-24T16:52:48.097Z,242.37
2018-08-24T16:55:19.015Z,241.97
2018-08-24T16:57:52.128Z,238.65
2018-08-24T17:00:26.016Z,227.25
2018-08-24T17:02:57.435Z,240.77
2018-08-24T17:05:29.058Z,229.82
2018-08-24T17:07:59.723Z,238.52
2018-08-24T17:10:31.618Z,228.35
2018-08-24T17:13:03.179Z,227.32
2018-08-24T17:15:37.255Z,232.77
2018-08-24T17:18:10.721Z,237.63
2018-08-24T17:20:42.575Z,235.57
2018-08-24T17:23:13.732Z,230.05
2018-08-24T17:25:44.708Z,241.53
2018-08-24T17:28:16.288Z,235.23
2018-08-24T17:30:47.070Z,248.30
2018-08-24T17:33:17.746Z,229.18
2018-08-24T17:35:48.252Z,227.82
2018-08-24T17:38:19.047Z,229.05
2018-08-24T17:40:50.753Z,223.25
2018-08-24T17:43:21.249Z,222.25
2018-08-24T17:45:52.957Z,225.43
2018-08-24T17:48:23.721Z,224.92
2018-08-24T17:50:54.638Z,224.55
2018-08-24T17:53:25.295Z,225.53
2018-08-24T17:55:56.630Z,238.30
2018-08-24T17:58:27.305Z,241.20
2018-08-24T18:01:01.532Z,232.32
2018-08-24T18:03:32.171Z,237.45
2018-08-24T18:06:02.829Z,235.60
2018-08-24T18:08:33.431Z,231.90
2018-08-24T18:11:03.847Z,232.57
2018-08-24T18:13:34.366Z,232.25
2018-08-24T18:16:04.619Z,233.57
2018-08-24T18:18:35.545Z,234.45
2018-08-24T18:21:06.025Z,231.38
2018-08-24T18:23:37.388Z,228.85
2018-08-24T18:26:08.666Z,224.40
2018-08-24T18:28:39.552Z,225.87
2018-08-24T18:31:10.259Z,228.40
2018-08-24T18:33:40.876Z,239.57
2018-08-24T18:36:11.364Z,248.68
2018-08-24T18:38:41.880Z,234.50
2018-08-24T18:41:12.936Z,231.15
2018-08-24T18:43:43.628Z,229.13
2018-08-24T18:46:14.413Z,230.77
2018-08-24T18:48:45.004Z,234.03
2018-08-24T18:51:15.606Z,220.65
2018-08-24T18:53:46.227Z,228.50
2018-08-24T18:56:16.609Z,228.67
2018-08-24T18:58:47.993Z,218.10
2018-08-24T19:01:18.549Z,229.38
2018-08-24T19:03:49.397Z,233.50
2018-08-24T19:06:20.574Z,230.62
2018-08-24T19:08:52.365Z,234.03
2018-08-24T19:11:28.108Z,232.15
2018-08-24T19:13:59.400Z,223.87
2018-08-24T19:16:30.715Z,221.53
2018-08-24T19:19:06.217Z,223.03
2018-08-24T19:21:46.296Z,226.47
2018-08-24T19:24:16.704Z,237.45
2018-08-24T19:32:26.334Z,237.05
2018-08-24T19:34:59.498Z,233.20
2018-08-24T19:37:30.778Z,227.97
2018-08-24T19:40:06.316Z,262.48
2018-08-24T19:42:36.714Z,290.45
2018-08-24T19:45:08.407Z,226.75
2018-08-24T19:48:44.043Z,240.92
2018-08-24T19:51:14.661Z,227.18
2018-08-24T19:53:46.786Z,238.50
2018-08-24T19:56:17.270Z,242.50
2018-08-24T19:58:52.888Z,231.00
2018-08-24T20:01:24.967Z,228.70
2018-08-24T20:03:56.635Z,229.55
2018-08-24T20:06:33.227Z,227.62
2018-08-24T20:09:13.765Z,234.32
2018-08-24T20:11:48.249Z,243.30
2018-08-24T20:14:25.471Z,239.68
2018-08-24T20:17:01.208Z,244.35
2018-08-24T20:19:32.815Z,238.52
2018-08-24T20:22:12.230Z,247.10
2018-08-24T20:24:51.450Z,232.45
2018-08-24T20:27:23.885Z,230.70
2018-08-24T20:29:54.938Z,227.03
2018-08-24T20:32:25.888Z,227.35
2018-08-24T20:34:56.500Z,229.60
2018-08-24T20:37:27.473Z,223.05
2018-08-24T20:39:59.025Z,226.07
2018-08-24T20:42:30.793Z,226.07
2018-08-24T20:45:01.865Z,230.30
2018-08-24T20:47:33.024Z,231.35
2018-08-24T20:50:03.838Z,235.08
2018-08-24T20:52:34.478Z,225.57
2018-08-24T20:55:05.560Z,225.00
2018-08-24T20:57:36.182Z,226.47
2018-08-24T21:00:07.103Z,226.30
2018-08-24T21:02:38.754Z,222.33
2018-08-24T21:05:10.043Z,224.70
2018-08-24T21:07:46.610Z,221.95
2018-08-24T21:10:17.277Z,220.05
2018-08-24T21:12:47.807Z,228.20
2018-08-24T21:15:18.508Z,222.82
2018-08-24T21:17:49.803Z,221.03
2018-08-24T21:20:20.423Z,225.53
2018-08-24T21:22:50.861Z,222.75
2018-08-24T21:25:22.723Z,225.03
2018-08-24T21:27:53.650Z,220.35
2018-08-24T21:30:25.272Z,225.45
2018-08-24T21:32:55.983Z,226.88
2018-08-24T21:35:27.048Z,226.62
2018-08-24T21:37:57.577Z,238.28
2018-08-24T21:40:28.190Z,231.55
2018-08-24T21:42:58.797Z,217.97
2018-08-24T21:45:29.246Z,227.70
2018-08-24T21:47:59.864Z,230.72
2018-08-24T21:50:31.234Z,230.67
2018-08-24T21:53:02.892Z,227.47
2018-08-24T21:55:33.675Z,225.53
2018-08-24T21:58:05.438Z,232.55
2018-08-24T22:00:39.794Z,230.83
2018-08-24T22:03:13.469Z,224.50
2018-08-24T22:05:44.103Z,224.15
2018-08-24T22:08:14.800Z,226.85
2018-08-24T22:10:45.254Z,221.60
2018-08-24T22:13:15.658Z,228.00
2018-08-24T22:15:46.394Z,224.52
2018-08-24T22:18:16.917Z,224.42
2018-08-24T22:20:48.203Z,221.20
2018-08-24T22:23:18.732Z,225.65
2018-08-24T22:25:49.193Z,225.13
2018-08-24T22:28:20.390Z,221.93
2018-08-24T22:30:51.656Z,221.87
2018-08-24T22:33:22.256Z,223.93
2018-08-24T22:35:52.727Z,226.52
2018-08-24T22:38:23.452Z,234.30
2018-08-24T22:40:54.281Z,229.32
2018-08-24T22:43:31.101Z,230.10
2018-08-24T22:46:01.722Z,224.80
2018-08-24T22:48:33.187Z,225.30
2018-08-24T22:51:04.533Z,225.78
2018-08-24T22:53:35.372Z,226.15
2018-08-24T22:56:06.020Z,226.30
2018-08-24T22:58:36.759Z,222.07
2018-08-24T23:01:07.391Z,220.75
2018-08-24T23:03:38.196Z,220.67
2018-08-24T23:06:08.735Z,214.53
2018-08-24T23:08:39.240Z,219.30
2018-08-24T23:11:09.456Z,217.55
2018-08-24T23:13:39.964Z,230.05
2018-08-24T23:16:10.559Z,228.55
2018-08-24T23:18:41.266Z,230.67
2018-08-24T23:21:12.662Z,228.95
2018-08-24T23:23:43.000Z,228.35
2018-08-24T23:26:13.392Z,229.05
2018-08-24T23:28:44.065Z,222.05
2018-08-24T23:31:14.564Z,233.50
2018-08-24T23:33:45.350Z,222.25
2018-08-24T23:36:15.883Z,222.48
2018-08-24T23:38:46.493Z,222.42
2018-08-24T23:41:16.940Z,221.75
2018-08-24T23:43:56.612Z,223.82
2018-08-24T23:46:28.975Z,230.90
2018-08-24T23:48:59.715Z,239.85
2018-08-24T23:51:30.155Z,230.80
2018-08-24T23:54:00.492Z,219.07
2018-08-24T23:56:31.510Z,232.27
2018-08-24T23:59:01.990Z,224.65
